Aviation Digital Data Service (ADDS)

Output produced by METARs form (2109 UTC 01 December 2021)
found at http://aviationweather.gov/metar/data/
 
KLFK 011720Z 0118/0218 20006KT P6SM SKC 
     FM020000 21004KT P6SM SKC 
     FM020800 VRB03KT 4SM BR SKC 
     FM021000 VRB03KT 1/2SM FG BKN003 
     FM021500 20004KT P6SM SKC